Time;durP1;ratioP1;P1;durP2;ratioP2;P2;SDS_P1;SDS_P2;PMS_P1;PMS_P2;Temp;Humidity;BMP_temperature;BMP_pressure;BME280_temperature;BME280_humidity;BME280_pressure;Samples;Min_cycle;Max_cycle;Signal;HPM_P1;HPM_P2
2021/12/20 00:00:22;;;;;;;17.65;7.60;;;;;;;;;;5035312;28;20641;-73
2021/12/20 00:02:52;;;;;;;15.30;7.10;;;;;;;;;;5024305;28;20132;-74
2021/12/20 00:05:19;;;;;;;16.45;7.60;;;;;;;;;;5026985;28;20029;-74
2021/12/20 00:07:44;;;;;;;17.02;7.75;;;;;;;;;;4991706;28;20041;-73
2021/12/20 00:10:10;;;;;;;17.25;7.43;;;;;;;;;;5017979;28;20037;-74
2021/12/20 00:12:35;;;;;;;15.82;6.82;;;;;;;;;;5011575;28;20037;-74
2021/12/20 00:15:01;;;;;;;17.50;7.15;;;;;;;;;;5009663;28;20050;-74
2021/12/20 00:17:26;;;;;;;15.70;7.07;;;;;;;;;;4996913;28;20084;-74
2021/12/20 00:19:52;;;;;;;14.13;7.38;;;;;;;;;;4995826;28;20597;-73
2021/12/20 00:22:17;;;;;;;18.35;7.85;;;;;;;;;;5005177;28;20017;-74
2021/12/20 00:24:43;;;;;;;16.42;6.90;;;;;;;;;;5017883;28;20032;-74
2021/12/20 00:27:10;;;;;;;18.08;7.70;;;;;;;;;;5020949;28;20045;-74
2021/12/20 00:29:36;;;;;;;14.77;7.75;;;;;;;;;;5022819;28;20080;-74
2021/12/20 00:32:01;;;;;;;19.63;7.43;;;;;;;;;;5042412;28;20430;-74
2021/12/20 00:34:27;;;;;;;19.23;7.78;;;;;;;;;;5037595;28;20513;-74
2021/12/20 00:37:01;;;;;;;18.33;7.47;;;;;;;;;;5045070;28;20033;-74
2021/12/20 00:42:10;;;;;;;17.20;7.85;;;;;;;;;;5029795;28;20047;-74
2021/12/20 00:44:36;;;;;;;15.95;7.40;;;;;;;;;;5048766;28;20048;-74
2021/12/20 00:47:01;;;;;;;15.80;8.02;;;;;;;;;;5059963;28;20083;-74
2021/12/20 00:49:28;;;;;;;21.33;8.63;;;;;;;;;;5047585;28;20071;-74
2021/12/20 00:51:53;;;;;;;17.38;8.02;;;;;;;;;;5060777;28;20067;-74
2021/12/20 00:54:18;;;;;;;17.70;8.38;;;;;;;;;;5054845;28;20048;-74
2021/12/20 00:56:44;;;;;;;16.35;8.05;;;;;;;;;;5060934;28;20044;-74
2021/12/20 00:59:09;;;;;;;19.02;9.23;;;;;;;;;;5059456;28;20028;-74
2021/12/20 01:01:34;;;;;;;20.35;9.20;;;;;;;;;;5065265;28;20064;-74
2021/12/20 01:04:00;;;;;;;21.45;9.70;;;;;;;;;;5048506;28;20037;-74
2021/12/20 01:06:25;;;;;;;20.38;9.48;;;;;;;;;;5031431;28;20069;-74
2021/12/20 01:08:51;;;;;;;19.98;9.02;;;;;;;;;;5057463;28;20047;-74
2021/12/20 01:11:22;;;;;;;21.85;10.18;;;;;;;;;;5057418;28;20033;-74
2021/12/20 01:13:47;;;;;;;19.85;9.23;;;;;;;;;;5034489;28;20061;-75
2021/12/20 01:16:13;;;;;;;25.55;9.40;;;;;;;;;;5057322;28;20607;-74
2021/12/20 01:18:39;;;;;;;26.25;10.60;;;;;;;;;;5061007;28;20032;-74
2021/12/20 01:21:05;;;;;;;25.17;10.85;;;;;;;;;;5038240;28;20089;-74
2021/12/20 01:23:30;;;;;;;24.27;11.20;;;;;;;;;;5039301;28;20048;-74
2021/12/20 01:25:55;;;;;;;23.33;9.98;;;;;;;;;;5060177;28;20048;-74
2021/12/20 01:28:22;;;;;;;21.80;9.77;;;;;;;;;;5065088;28;20032;-74
2021/12/20 01:30:47;;;;;;;24.42;10.73;;;;;;;;;;5047778;28;20051;-74
2021/12/20 01:33:13;;;;;;;24.10;9.77;;;;;;;;;;5062677;28;20502;-74
2021/12/20 01:35:40;;;;;;;22.63;9.73;;;;;;;;;;5034352;28;20079;-74
2021/12/20 01:38:07;;;;;;;26.17;10.57;;;;;;;;;;5039769;28;20655;-74
2021/12/20 01:40:34;;;;;;;24.27;10.50;;;;;;;;;;5024593;28;20048;-74
2021/12/20 01:42:59;;;;;;;24.98;10.60;;;;;;;;;;5017962;28;20029;-74
2021/12/20 01:45:27;;;;;;;28.67;10.73;;;;;;;;;;5026872;28;20080;-74
2021/12/20 01:48:03;;;;;;;30.88;11.63;;;;;;;;;;5028913;28;20171;-73
2021/12/20 01:53:01;;;;;;;27.97;10.57;;;;;;;;;;5042617;28;20483;-74
2021/12/20 01:55:27;;;;;;;27.40;11.38;;;;;;;;;;5060312;28;20028;-75
2021/12/20 01:57:52;;;;;;;30.20;11.60;;;;;;;;;;5057100;28;20029;-74
2021/12/20 02:00:24;;;;;;;30.65;12.05;;;;;;;;;;5054244;28;20143;-74
2021/12/20 02:02:56;;;;;;;28.67;12.00;;;;;;;;;;5061671;28;20090;-74
2021/12/20 02:05:34;;;;;;;35.00;13.40;;;;;;;;;;5053429;28;20045;-74
2021/12/20 02:08:13;;;;;;;31.88;12.30;;;;;;;;;;5040487;28;20041;-74
2021/12/20 02:10:39;;;;;;;29.17;11.95;;;;;;;;;;5043440;28;20067;-74
2021/12/20 02:13:04;;;;;;;34.38;12.98;;;;;;;;;;5039039;28;20037;-74
2021/12/20 02:15:29;;;;;;;32.17;12.48;;;;;;;;;;5039048;28;20057;-74
2021/12/20 02:17:55;;;;;;;27.58;11.57;;;;;;;;;;5046278;28;20518;-74
2021/12/20 02:20:31;;;;;;;26.52;11.50;;;;;;;;;;5044812;28;20041;-74
2021/12/20 02:22:58;;;;;;;29.15;11.80;;;;;;;;;;5046409;28;20037;-74
2021/12/20 02:25:24;;;;;;;28.83;11.70;;;;;;;;;;5048766;28;20095;-74
2021/12/20 02:27:50;;;;;;;28.80;11.65;;;;;;;;;;5047383;28;20082;-74
2021/12/20 02:38:28;;;;;;;29.23;10.80;;;;;;;;;;5043347;28;20098;-74
2021/12/20 02:41:08;;;;;;;26.05;10.65;;;;;;;;;;5048384;28;20037;-74
2021/12/20 02:43:38;;;;;;;25.60;10.30;;;;;;;;;;5046916;28;20124;-74
2021/12/20 02:46:06;;;;;;;26.50;10.00;;;;;;;;;;5046511;28;20075;-74
2021/12/20 02:48:32;;;;;;;25.10;8.82;;;;;;;;;;5048369;28;20033;-74
2021/12/20 02:50:57;;;;;;;27.05;10.27;;;;;;;;;;5048983;28;20075;-74
2021/12/20 02:53:23;;;;;;;22.63;9.73;;;;;;;;;;5043726;28;20191;-74
2021/12/20 02:55:49;;;;;;;23.20;8.18;;;;;;;;;;5041640;28;20033;-74
2021/12/20 02:58:14;;;;;;;20.95;8.50;;;;;;;;;;5040232;28;20487;-74
2021/12/20 03:00:40;;;;;;;20.65;8.65;;;;;;;;;;5047181;28;20406;-74
2021/12/20 03:03:06;;;;;;;19.75;8.18;;;;;;;;;;5047246;28;20041;-74
2021/12/20 03:05:31;;;;;;;19.30;7.93;;;;;;;;;;5047005;28;20045;-74
2021/12/20 03:07:57;;;;;;;20.30;8.63;;;;;;;;;;5053872;28;20449;-75
2021/12/20 03:10:23;;;;;;;20.50;7.63;;;;;;;;;;5049079;28;20463;-74
2021/12/20 03:12:50;;;;;;;20.33;8.20;;;;;;;;;;5044840;28;20025;-74
2021/12/20 03:15:22;;;;;;;17.88;7.57;;;;;;;;;;5059496;28;20796;-74
2021/12/20 03:17:52;;;;;;;24.92;8.32;;;;;;;;;;5044055;28;20052;-74
2021/12/20 03:20:18;;;;;;;20.38;8.52;;;;;;;;;;5038477;28;20040;-74
2021/12/20 03:22:43;;;;;;;20.48;8.85;;;;;;;;;;5045800;28;20502;-74
2021/12/20 03:25:09;;;;;;;22.42;8.55;;;;;;;;;;5046876;28;20021;-74
2021/12/20 03:27:35;;;;;;;20.83;7.88;;;;;;;;;;5067889;28;20034;-74
2021/12/20 03:30:00;;;;;;;21.83;8.65;;;;;;;;;;5051778;28;20052;-74
2021/12/20 03:32:26;;;;;;;25.95;8.80;;;;;;;;;;5042367;28;20041;-74
2021/12/20 03:34:51;;;;;;;22.80;9.30;;;;;;;;;;5045276;28;20172;-74
2021/12/20 03:37:17;;;;;;;22.52;8.98;;;;;;;;;;5050250;28;20070;-74
2021/12/20 03:39:42;;;;;;;26.25;10.25;;;;;;;;;;5056064;28;20529;-74
2021/12/20 03:42:08;;;;;;;23.80;10.27;;;;;;;;;;5045756;28;20167;-74
2021/12/20 03:44:37;;;;;;;25.65;10.00;;;;;;;;;;5050677;28;20049;-74
2021/12/20 03:47:03;;;;;;;25.85;10.35;;;;;;;;;;5038017;28;20041;-74
2021/12/20 03:49:28;;;;;;;23.90;10.18;;;;;;;;;;5046583;28;20393;-74
2021/12/20 03:51:54;;;;;;;24.95;10.57;;;;;;;;;;5047964;28;20444;-74
2021/12/20 03:54:19;;;;;;;27.38;11.13;;;;;;;;;;5015224;28;20049;-74
2021/12/20 03:56:44;;;;;;;26.77;11.30;;;;;;;;;;5045399;28;20084;-74
2021/12/20 03:59:10;;;;;;;29.52;11.20;;;;;;;;;;5060506;28;20052;-74
2021/12/20 04:01:35;;;;;;;28.42;10.93;;;;;;;;;;5067593;28;20040;-74
2021/12/20 04:04:02;;;;;;;27.50;10.73;;;;;;;;;;5063093;28;20028;-74
2021/12/20 04:06:28;;;;;;;27.95;10.88;;;;;;;;;;5053726;28;20044;-74
2021/12/20 04:08:54;;;;;;;28.25;11.45;;;;;;;;;;5063514;28;20147;-74
2021/12/20 04:11:20;;;;;;;30.08;12.35;;;;;;;;;;5042549;28;20426;-74
2021/12/20 04:13:45;;;;;;;31.42;12.75;;;;;;;;;;5060004;28;20032;-74
2021/12/20 04:16:11;;;;;;;27.30;11.35;;;;;;;;;;5037091;28;20025;-74
2021/12/20 04:18:36;;;;;;;31.60;13.27;;;;;;;;;;5060168;28;20028;-74
2021/12/20 04:21:03;;;;;;;30.23;12.98;;;;;;;;;;5039963;28;20061;-74
2021/12/20 04:23:28;;;;;;;30.13;12.70;;;;;;;;;;5024403;28;20040;-74
2021/12/20 04:25:54;;;;;;;37.72;13.82;;;;;;;;;;5039436;28;20575;-74
2021/12/20 04:28:20;;;;;;;35.63;14.00;;;;;;;;;;5025766;28;20035;-74
2021/12/20 04:30:45;;;;;;;34.17;14.15;;;;;;;;;;5042027;28;20033;-74
2021/12/20 04:33:10;;;;;;;36.42;14.40;;;;;;;;;;5037460;28;20041;-74
2021/12/20 04:35:36;;;;;;;33.63;13.73;;;;;;;;;;5040520;28;20087;-74
2021/12/20 04:38:02;;;;;;;32.15;14.55;;;;;;;;;;5036967;28;20040;-74
2021/12/20 04:40:28;;;;;;;37.17;13.70;;;;;;;;;;5050257;28;20055;-74
2021/12/20 04:42:58;;;;;;;35.70;14.00;;;;;;;;;;5068725;28;20401;-74
2021/12/20 04:45:25;;;;;;;32.40;13.80;;;;;;;;;;5028773;28;20241;-74
2021/12/20 04:47:50;;;;;;;35.60;13.95;;;;;;;;;;5056119;28;20043;-74
2021/12/20 04:50:16;;;;;;;43.95;14.30;;;;;;;;;;5036684;28;20036;-74
2021/12/20 04:52:42;;;;;;;40.58;14.63;;;;;;;;;;5033293;28;20129;-74
2021/12/20 04:55:09;;;;;;;35.85;14.18;;;;;;;;;;5034365;28;20072;-74
2021/12/20 04:57:35;;;;;;;34.88;14.23;;;;;;;;;;5041685;28;20523;-74
2021/12/20 05:00:02;;;;;;;30.35;13.10;;;;;;;;;;5048427;28;20076;-74
2021/12/20 05:02:27;;;;;;;36.08;13.85;;;;;;;;;;5041436;28;20041;-74
2021/12/20 05:04:53;;;;;;;33.08;13.80;;;;;;;;;;5035097;28;20094;-74
2021/12/20 05:07:18;;;;;;;33.13;13.95;;;;;;;;;;5044158;28;20044;-74
2021/12/20 05:09:44;;;;;;;32.20;12.65;;;;;;;;;;5045984;28;20115;-74
2021/12/20 05:12:14;;;;;;;32.25;12.45;;;;;;;;;;5046183;28;20037;-74
2021/12/20 05:14:42;;;;;;;32.38;13.23;;;;;;;;;;5047179;28;20037;-74
2021/12/20 05:17:11;;;;;;;32.28;13.45;;;;;;;;;;5041099;28;20037;-74
2021/12/20 05:19:38;;;;;;;26.73;11.50;;;;;;;;;;5040525;28;20036;-74
2021/12/20 05:22:04;;;;;;;26.27;11.63;;;;;;;;;;5044059;28;20107;-74
2021/12/20 05:24:29;;;;;;;25.25;10.93;;;;;;;;;;5043894;28;20091;-74
2021/12/20 05:26:55;;;;;;;30.05;12.18;;;;;;;;;;5046157;28;20548;-74
2021/12/20 05:29:20;;;;;;;26.80;11.18;;;;;;;;;;5045850;28;20044;-74
2021/12/20 05:31:46;;;;;;;25.65;11.30;;;;;;;;;;5029783;28;20037;-74
2021/12/20 05:34:11;;;;;;;23.70;9.68;;;;;;;;;;5040898;28;20036;-74
2021/12/20 05:36:37;;;;;;;26.45;10.82;;;;;;;;;;5045144;28;20029;-74
2021/12/20 05:39:03;;;;;;;25.63;10.93;;;;;;;;;;5044618;28;20041;-74
2021/12/20 05:41:28;;;;;;;22.75;9.23;;;;;;;;;;5044801;28;20076;-74
2021/12/20 05:43:53;;;;;;;24.75;9.68;;;;;;;;;;5046699;28;20036;-74
2021/12/20 05:46:19;;;;;;;26.25;9.32;;;;;;;;;;5042154;28;20152;-74
2021/12/20 05:48:46;;;;;;;22.58;9.95;;;;;;;;;;5043399;28;20126;-74
2021/12/20 05:51:12;;;;;;;25.92;10.50;;;;;;;;;;5040705;28;20069;-74
2021/12/20 05:53:37;;;;;;;23.98;10.45;;;;;;;;;;5053254;28;20044;-74
2021/12/20 05:56:03;;;;;;;20.48;9.13;;;;;;;;;;5058519;28;20509;-74
2021/12/20 05:58:28;;;;;;;27.67;10.43;;;;;;;;;;5065299;28;20068;-75
2021/12/20 06:00:53;;;;;;;23.95;9.27;;;;;;;;;;5056214;28;20419;-74
2021/12/20 06:03:19;;;;;;;26.80;10.32;;;;;;;;;;5046877;28;20514;-74
2021/12/20 06:05:44;;;;;;;23.23;9.93;;;;;;;;;;5047459;28;20044;-74
2021/12/20 06:08:10;;;;;;;25.80;9.77;;;;;;;;;;5043692;28;20040;-74
2021/12/20 06:10:36;;;;;;;21.27;8.25;;;;;;;;;;5040737;28;20043;-74
2021/12/20 06:13:03;;;;;;;21.10;8.02;;;;;;;;;;5045932;28;20158;-74
2021/12/20 06:15:29;;;;;;;18.25;7.95;;;;;;;;;;5044188;28;20067;-74
2021/12/20 06:17:54;;;;;;;19.45;8.13;;;;;;;;;;5043115;28;20041;-74
2021/12/20 06:20:19;;;;;;;16.85;7.82;;;;;;;;;;5042554;28;20059;-74
2021/12/20 06:22:45;;;;;;;18.35;7.88;;;;;;;;;;5042171;28;20068;-74
2021/12/20 06:25:11;;;;;;;26.55;8.45;;;;;;;;;;5045451;28;20021;-74
2021/12/20 06:27:38;;;;;;;18.48;7.93;;;;;;;;;;5045485;28;20108;-74
2021/12/20 06:30:08;;;;;;;20.00;8.45;;;;;;;;;;5046787;28;20143;-73
2021/12/20 06:32:33;;;;;;;18.63;7.90;;;;;;;;;;5046500;28;20131;-74
2021/12/20 06:34:59;;;;;;;20.75;7.20;;;;;;;;;;5042782;28;20116;-74
2021/12/20 06:37:24;;;;;;;15.45;7.43;;;;;;;;;;5040882;28;20036;-74
2021/12/20 06:39:49;;;;;;;19.17;7.55;;;;;;;;;;5042763;28;20045;-74
2021/12/20 06:42:15;;;;;;;20.70;8.43;;;;;;;;;;5039635;28;20556;-74
2021/12/20 06:44:40;;;;;;;20.83;8.20;;;;;;;;;;5051452;28;20080;-75
2021/12/20 06:47:06;;;;;;;18.80;8.65;;;;;;;;;;5048079;28;20109;-74
2021/12/20 06:49:31;;;;;;;16.50;7.50;;;;;;;;;;5035065;28;20061;-74
2021/12/20 06:51:59;;;;;;;16.58;6.70;;;;;;;;;;5033150;28;20037;-74
2021/12/20 06:54:25;;;;;;;18.13;7.20;;;;;;;;;;5051106;28;20128;-74
2021/12/20 06:56:50;;;;;;;17.02;6.03;;;;;;;;;;5058092;28;20048;-74
2021/12/20 06:59:16;;;;;;;16.20;7.30;;;;;;;;;;5064688;28;20448;-74
2021/12/20 07:01:41;;;;;;;20.17;7.70;;;;;;;;;;5059003;28;20044;-74
2021/12/20 07:04:07;;;;;;;18.30;7.03;;;;;;;;;;5047418;28;20035;-74
2021/12/20 07:06:32;;;;;;;15.77;6.82;;;;;;;;;;5041893;28;20041;-74
2021/12/20 07:08:58;;;;;;;16.55;6.38;;;;;;;;;;5061323;28;20029;-74
2021/12/20 07:11:23;;;;;;;21.92;6.38;;;;;;;;;;5057972;28;20123;-74
2021/12/20 07:13:52;;;;;;;15.65;5.22;;;;;;;;;;5048400;28;20089;-74
2021/12/20 07:16:17;;;;;;;13.23;5.07;;;;;;;;;;5047886;28;20025;-74
2021/12/20 07:18:43;;;;;;;10.80;4.35;;;;;;;;;;5046644;28;20035;-74
2021/12/20 07:21:08;;;;;;;15.55;5.20;;;;;;;;;;5045888;28;20037;-74
2021/12/20 07:23:34;;;;;;;10.25;4.55;;;;;;;;;;5048556;28;20048;-74
2021/12/20 07:26:01;;;;;;;10.98;4.80;;;;;;;;;;5048675;28;20037;-72
2021/12/20 07:28:27;;;;;;;9.52;4.05;;;;;;;;;;5035167;28;20994;-78
2021/12/20 07:30:52;;;;;;;10.57;4.38;;;;;;;;;;5026577;28;20492;-72
2021/12/20 07:33:17;;;;;;;14.43;4.60;;;;;;;;;;5029318;28;20048;-75
2021/12/20 07:35:44;;;;;;;12.38;4.75;;;;;;;;;;5045338;28;20095;-72
2021/12/20 07:38:14;;;;;;;17.00;5.13;;;;;;;;;;5052076;28;20123;-72
2021/12/20 07:40:44;;;;;;;15.98;4.88;;;;;;;;;;5054781;28;20514;-73
2021/12/20 07:43:10;;;;;;;12.35;4.30;;;;;;;;;;5045478;28;20558;-74
2021/12/20 07:45:35;;;;;;;16.02;4.95;;;;;;;;;;5034145;28;20061;-74
2021/12/20 07:48:00;;;;;;;16.98;4.68;;;;;;;;;;5034606;28;20591;-73
2021/12/20 07:50:26;;;;;;;10.48;4.22;;;;;;;;;;5026753;28;20044;-76
2021/12/20 07:52:51;;;;;;;9.88;4.10;;;;;;;;;;5027638;28;20538;-77
2021/12/20 07:55:17;;;;;;;17.67;5.10;;;;;;;;;;5027538;28;20021;-74
2021/12/20 07:57:42;;;;;;;16.25;5.05;;;;;;;;;;5033434;28;20033;-74
2021/12/20 08:00:09;;;;;;;16.48;4.57;;;;;;;;;;5053535;28;20040;-74
2021/12/20 08:02:35;;;;;;;13.57;4.57;;;;;;;;;;5045630;28;20037;-72
2021/12/20 08:05:00;;;;;;;17.65;5.07;;;;;;;;;;5038884;28;20051;-78
2021/12/20 08:07:26;;;;;;;12.52;4.15;;;;;;;;;;5046203;28;20047;-78
2021/12/20 08:09:51;;;;;;;8.40;3.80;;;;;;;;;;5044895;28;20083;-73
2021/12/20 08:12:17;;;;;;;15.02;4.68;;;;;;;;;;5043360;28;20044;-75
2021/12/20 08:14:43;;;;;;;10.65;3.90;;;;;;;;;;5049126;28;20063;-76
2021/12/20 08:17:08;;;;;;;9.90;3.85;;;;;;;;;;5059285;28;20040;-76
2021/12/20 08:19:34;;;;;;;11.10;3.67;;;;;;;;;;5063334;28;20043;-73
2021/12/20 08:21:59;;;;;;;9.25;3.50;;;;;;;;;;5057085;28;20154;-72
2021/12/20 08:24:25;;;;;;;11.10;3.60;;;;;;;;;;5063282;28;20040;-79
2021/12/20 08:26:50;;;;;;;13.73;3.63;;;;;;;;;;5051838;28;20041;-74
2021/12/20 08:29:15;;;;;;;13.48;3.70;;;;;;;;;;5044402;28;20067;-77
2021/12/20 08:31:41;;;;;;;15.60;3.55;;;;;;;;;;5038342;28;20085;-74
2021/12/20 08:34:06;;;;;;;15.07;4.03;;;;;;;;;;5036640;28;20072;-77
2021/12/20 08:36:32;;;;;;;13.38;3.55;;;;;;;;;;5032247;28;20124;-74
2021/12/20 08:38:57;;;;;;;16.35;3.75;;;;;;;;;;5047498;28;20060;-74
2021/12/20 08:41:23;;;;;;;10.35;3.60;;;;;;;;;;5043402;28;20033;-75
2021/12/20 08:43:48;;;;;;;15.85;3.67;;;;;;;;;;5046501;28;23377;-72
2021/12/20 08:46:15;;;;;;;12.98;3.92;;;;;;;;;;5059348;28;20052;-72
2021/12/20 08:48:42;;;;;;;13.07;4.00;;;;;;;;;;5051770;28;20052;-73
2021/12/20 08:51:08;;;;;;;9.60;3.40;;;;;;;;;;5062710;28;20044;-72
2021/12/20 08:53:34;;;;;;;14.02;3.05;;;;;;;;;;5062098;28;20044;-73
2021/12/20 08:56:00;;;;;;;8.05;2.80;;;;;;;;;;5054327;28;20406;-73
2021/12/20 08:58:25;;;;;;;10.18;2.65;;;;;;;;;;5039155;28;20114;-74
2021/12/20 09:00:52;;;;;;;12.23;2.78;;;;;;;;;;5062122;28;20107;-75
2021/12/20 09:03:18;;;;;;;14.73;2.65;;;;;;;;;;5046049;28;20041;-79
2021/12/20 09:05:43;;;;;;;10.18;2.60;;;;;;;;;;5038740;28;20046;-77
2021/12/20 09:08:10;;;;;;;12.48;2.90;;;;;;;;;;5045122;28;20099;-70
2021/12/20 09:10:36;;;;;;;16.40;3.05;;;;;;;;;;5055205;28;20044;-76
2021/12/20 09:13:03;;;;;;;13.57;3.10;;;;;;;;;;5052626;28;20055;-76
2021/12/20 09:15:28;;;;;;;8.23;2.35;;;;;;;;;;5057149;28;20174;-76
2021/12/20 09:17:54;;;;;;;12.88;2.80;;;;;;;;;;5053351;28;20526;-77
2021/12/20 09:20:21;;;;;;;10.48;2.60;;;;;;;;;;5054748;28;20051;-74
2021/12/20 09:22:58;;;;;;;16.98;2.78;;;;;;;;;;5058222;28;20044;-75
2021/12/20 09:25:25;;;;;;;11.70;2.92;;;;;;;;;;5052842;28;20037;-75
2021/12/20 09:27:52;;;;;;;11.07;3.05;;;;;;;;;;5054699;28;20344;-72
2021/12/20 09:30:19;;;;;;;15.20;2.60;;;;;;;;;;5054524;28;20051;-79
2021/12/20 09:32:45;;;;;;;14.57;2.97;;;;;;;;;;5064472;28;20048;-77
2021/12/20 09:35:10;;;;;;;16.55;3.10;;;;;;;;;;5052999;28;20101;-75
2021/12/20 09:37:37;;;;;;;10.65;3.28;;;;;;;;;;5048561;28;20107;-75
2021/12/20 09:40:06;;;;;;;17.08;2.88;;;;;;;;;;5055603;28;20552;-75
2021/12/20 09:42:33;;;;;;;14.98;2.83;;;;;;;;;;5028768;28;20038;-76
2021/12/20 09:45:00;;;;;;;10.13;2.50;;;;;;;;;;5025008;28;20068;-75
2021/12/20 09:47:32;;;;;;;10.13;3.00;;;;;;;;;;5029610;28;20127;-73
2021/12/20 09:50:01;;;;;;;12.35;2.75;;;;;;;;;;5037792;28;20081;-76
2021/12/20 09:52:26;;;;;;;16.08;2.20;;;;;;;;;;5058155;28;20035;-76
2021/12/20 09:54:52;;;;;;;9.85;1.60;;;;;;;;;;5055745;28;20028;-78
2021/12/20 09:57:20;;;;;;;9.57;2.03;;;;;;;;;;5056316;28;20171;-79
2021/12/20 09:59:45;;;;;;;8.35;2.10;;;;;;;;;;5052478;28;20148;-77
2021/12/20 10:02:11;;;;;;;9.38;2.55;;;;;;;;;;5057610;28;20118;-73
2021/12/20 10:04:37;;;;;;;13.18;2.13;;;;;;;;;;5057584;28;20032;-73
2021/12/20 10:07:04;;;;;;;11.20;2.65;;;;;;;;;;5059822;28;20031;-78
2021/12/20 10:09:33;;;;;;;15.02;2.78;;;;;;;;;;5056148;28;20043;-76
2021/12/20 10:12:11;;;;;;;10.85;2.22;;;;;;;;;;5038737;28;20044;-75
2021/12/20 10:14:56;;;;;;;9.68;2.28;;;;;;;;;;5044195;28;20047;-74
2021/12/20 10:17:22;;;;;;;14.18;2.35;;;;;;;;;;5042188;28;20480;-74
2021/12/20 10:19:49;;;;;;;8.00;2.17;;;;;;;;;;5031004;28;20076;-74
2021/12/20 10:22:29;;;;;;;19.38;2.95;;;;;;;;;;5035881;28;20033;-74
2021/12/20 10:24:58;;;;;;;12.60;2.08;;;;;;;;;;5034903;28;20040;-74
2021/12/20 10:27:32;;;;;;;15.05;3.30;;;;;;;;;;5041059;28;20198;-85
2021/12/20 10:30:00;;;;;;;12.27;2.67;;;;;;;;;;5053059;28;20146;-74
2021/12/20 10:32:41;;;;;;;11.23;2.42;;;;;;;;;;5053713;28;20037;-71
2021/12/20 10:35:25;;;;;;;17.08;3.25;;;;;;;;;;5046514;28;20048;-71
2021/12/20 10:37:50;;;;;;;;;;;;;;;;;;5050286;28;20048;-73
2021/12/20 10:40:16;;;;;;;11.43;2.38;;;;;;;;;;5061621;28;19994;-72
2021/12/20 10:42:41;;;;;;;15.15;2.40;;;;;;;;;;5052562;28;20098;-72
2021/12/20 10:45:09;;;;;;;13.88;2.13;;;;;;;;;;5039728;28;20381;-71
2021/12/20 10:47:35;;;;;;;17.27;2.58;;;;;;;;;;5034136;28;20514;-72
2021/12/20 10:50:27;;;;;;;12.95;2.45;;;;;;;;;;5055302;28;20045;-70
2021/12/20 10:53:09;;;;;;;16.27;2.47;;;;;;;;;;5047707;28;20148;-69
2021/12/20 10:55:40;;;;;;;7.68;2.28;;;;;;;;;;5043610;28;20126;-69
2021/12/20 10:58:35;;;;;;;14.18;2.53;;;;;;;;;;5051220;28;20040;-71
2021/12/20 11:01:22;;;;;;;12.75;2.40;;;;;;;;;;5045320;28;20068;-71
2021/12/20 11:04:04;;;;;;;11.73;2.03;;;;;;;;;;5043870;28;20053;-72
2021/12/20 11:09:11;;;;;;;12.65;2.42;;;;;;;;;;5022256;28;20069;-69
2021/12/20 11:11:40;;;;;;;16.92;2.90;;;;;;;;;;5010477;28;20529;-75
2021/12/20 11:14:07;;;;;;;17.67;2.35;;;;;;;;;;5017240;28;20624;-76
2021/12/20 11:16:36;;;;;;;10.63;1.83;;;;;;;;;;5026442;28;20143;-76
2021/12/20 11:19:16;;;;;;;14.45;2.58;;;;;;;;;;5010081;28;20038;-78
2021/12/20 11:21:59;;;;;;;11.45;2.40;;;;;;;;;;5007802;28;20053;-71
2021/12/20 11:24:30;;;;;;;;;;;;;;;;;;5015641;28;20034;-72
2021/12/20 11:26:56;;;;;;;14.45;2.20;;;;;;;;;;5026628;28;19929;-72
2021/12/20 11:29:22;;;;;;;12.52;2.47;;;;;;;;;;5024761;28;20033;-76
2021/12/20 11:31:49;;;;;;;17.90;6.18;;;;;;;;;;5024168;28;20045;-77
2021/12/20 11:34:14;;;;;;;15.88;6.07;;;;;;;;;;5040604;28;20087;-76
2021/12/20 11:36:40;;;;;;;21.98;5.50;;;;;;;;;;5027599;28;20025;-78
2021/12/20 11:39:06;;;;;;;12.20;3.30;;;;;;;;;;5008899;28;20096;-86
2021/12/20 11:41:32;;;;;;;16.17;4.68;;;;;;;;;;5003713;28;20049;-78
2021/12/20 11:43:59;;;;;;;12.40;3.88;;;;;;;;;;5019976;28;20045;-89
2021/12/20 11:46:34;;;;;;;32.47;10.35;;;;;;;;;;5028992;28;20061;-83
2021/12/20 11:49:00;;;;;;;19.38;4.97;;;;;;;;;;5047418;28;20035;-81
2021/12/20 11:51:25;;;;;;;29.48;8.20;;;;;;;;;;5036458;28;20037;-82
2021/12/20 11:53:50;;;;;;;30.08;9.95;;;;;;;;;;5045033;28;20038;-77
2021/12/20 11:56:16;;;;;;;45.72;11.90;;;;;;;;;;5035890;28;20549;-78
2021/12/20 11:58:46;;;;;;;55.10;15.00;;;;;;;;;;5041657;28;20421;-79
2021/12/20 12:01:18;;;;;;;27.52;7.90;;;;;;;;;;5033229;28;20691;-75
2021/12/20 12:03:58;;;;;;;19.25;6.18;;;;;;;;;;5040627;28;20124;-75
2021/12/20 12:06:29;;;;;;;16.17;6.18;;;;;;;;;;5044453;28;20040;-75
2021/12/20 12:08:58;;;;;;;12.43;3.03;;;;;;;;;;5048842;28;20102;-75
2021/12/20 12:11:23;;;;;;;9.35;2.83;;;;;;;;;;5047114;28;20048;-78
2021/12/20 12:14:06;;;;;;;16.13;2.60;;;;;;;;;;5053410;28;20048;-77
2021/12/20 12:17:00;;;;;;;9.52;2.75;;;;;;;;;;5042828;28;20517;-79
2021/12/20 12:19:42;;;;;;;15.02;2.70;;;;;;;;;;5042616;28;20040;-79
2021/12/20 12:22:25;;;;;;;17.75;2.67;;;;;;;;;;5041684;28;20816;-74
2021/12/20 12:24:51;;;;;;;;;;;;;;;;;;5033318;28;20553;-74
2021/12/20 12:27:22;;;;;;;11.10;2.40;;;;;;;;;;5054338;28;20015;-73
2021/12/20 12:30:13;;;;;;;20.55;2.97;;;;;;;;;;5055331;28;20051;-76
2021/12/20 12:32:48;;;;;;;8.27;2.50;;;;;;;;;;5057195;28;20099;-78
2021/12/20 12:35:56;;;;;;;13.70;2.35;;;;;;;;;;5054995;28;20045;-81
2021/12/20 12:38:25;;;;;;;12.27;2.83;;;;;;;;;;5054168;28;20054;-75
2021/12/20 12:41:07;;;;;;;9.73;2.78;;;;;;;;;;5054104;28;20119;-75
2021/12/20 12:43:56;;;;;;;13.90;2.53;;;;;;;;;;5059878;28;20040;-80
2021/12/20 12:46:36;;;;;;;14.95;2.90;;;;;;;;;;5057559;28;20101;-79
2021/12/20 12:49:42;;;;;;;11.13;2.72;;;;;;;;;;5055593;28;20506;-77
2021/12/20 12:52:11;;;;;;;9.13;2.90;;;;;;;;;;5029661;28;20054;-77
2021/12/20 12:55:03;;;;;;;14.20;4.13;;;;;;;;;;5058874;28;20651;-82
2021/12/20 12:57:31;;;;;;;11.43;2.63;;;;;;;;;;5040089;28;20044;-79
2021/12/20 13:00:06;;;;;;;32.08;11.15;;;;;;;;;;5057624;28;20636;-80
2021/12/20 13:02:34;;;;;;;13.60;3.90;;;;;;;;;;5053981;28;20044;-77
2021/12/20 13:05:14;;;;;;;13.32;4.75;;;;;;;;;;5062525;28;20462;-78
2021/12/20 13:08:02;;;;;;;20.50;6.28;;;;;;;;;;5059311;28;20044;-71
2021/12/20 13:10:52;;;;;;;13.25;3.60;;;;;;;;;;5056873;28;20032;-78
2021/12/20 13:13:27;;;;;;;10.10;2.55;;;;;;;;;;5053861;28;20048;-70
2021/12/20 13:15:57;;;;;;;13.27;3.00;;;;;;;;;;5059980;28;20020;-69
2021/12/20 13:18:32;;;;;;;9.43;2.53;;;;;;;;;;5059069;28;20461;-71
2021/12/20 13:21:04;;;;;;;18.80;2.90;;;;;;;;;;5058744;28;20115;-68
2021/12/20 13:23:39;;;;;;;6.60;2.05;;;;;;;;;;5061443;28;20033;-70
2021/12/20 13:26:09;;;;;;;12.70;3.00;;;;;;;;;;5050905;28;20125;-69
2021/12/20 13:28:38;;;;;;;9.52;2.95;;;;;;;;;;5052926;28;20047;-69
2021/12/20 13:31:08;;;;;;;11.30;2.38;;;;;;;;;;5049015;28;20035;-70
2021/12/20 13:33:48;;;;;;;6.57;2.38;;;;;;;;;;5046375;28;20041;-70
2021/12/20 13:36:22;;;;;;;11.38;2.42;;;;;;;;;;5041812;28;20124;-67
2021/12/20 13:38:57;;;;;;;12.45;2.30;;;;;;;;;;5044668;28;20094;-67
2021/12/20 13:41:25;;;;;;;11.27;2.33;;;;;;;;;;5055318;28;20060;-69
2021/12/20 13:43:57;;;;;;;7.70;2.30;;;;;;;;;;5046984;28;20033;-71
2021/12/20 13:46:29;;;;;;;11.07;2.70;;;;;;;;;;5031573;28;20128;-75
2021/12/20 13:49:05;;;;;;;9.95;2.53;;;;;;;;;;5013000;28;20029;-75
2021/12/20 13:51:45;;;;;;;16.13;2.65;;;;;;;;;;5021392;28;20179;-76
2021/12/20 13:54:16;;;;;;;12.88;2.67;;;;;;;;;;5039837;28;20174;-78
2021/12/20 13:56:44;;;;;;;19.00;2.85;;;;;;;;;;5040807;28;20570;-76
2021/12/20 13:59:09;;;;;;;12.75;3.00;;;;;;;;;;5042046;28;20045;-74
2021/12/20 14:01:35;;;;;;;8.90;2.40;;;;;;;;;;5033610;28;20056;-75
2021/12/20 14:04:00;;;;;;;9.00;2.80;;;;;;;;;;5031936;28;20091;-73
2021/12/20 14:06:41;;;;;;;21.02;4.28;;;;;;;;;;5037764;28;20567;-78
2021/12/20 14:09:23;;;;;;;15.38;3.60;;;;;;;;;;5037802;28;20052;-74
2021/12/20 14:12:06;;;;;;;9.30;2.88;;;;;;;;;;5038592;28;20120;-74
2021/12/20 14:14:31;;;;;;;10.70;3.10;;;;;;;;;;5040897;28;20413;-78
2021/12/20 14:17:02;;;;;;;21.13;3.70;;;;;;;;;;5016570;28;20044;-74
2021/12/20 14:19:57;;;;;;;12.00;3.45;;;;;;;;;;5034694;28;20029;-74
2021/12/20 14:22:22;;;;;;;13.15;3.13;;;;;;;;;;5035279;28;20028;-74
2021/12/20 14:24:48;;;;;;;11.43;3.90;;;;;;;;;;5030776;28;20039;-80
2021/12/20 14:27:21;;;;;;;8.93;2.78;;;;;;;;;;5033631;28;20041;-80
2021/12/20 14:29:47;;;;;;;10.90;3.60;;;;;;;;;;5011032;28;20053;-86
2021/12/20 14:32:14;;;;;;;14.10;4.57;;;;;;;;;;5014016;28;20601;-87
2021/12/20 14:34:40;;;;;;;10.82;3.20;;;;;;;;;;5037464;28;20530;-75
2021/12/20 14:37:11;;;;;;;10.68;3.50;;;;;;;;;;5013542;28;20033;-75
2021/12/20 14:39:42;;;;;;;12.98;3.92;;;;;;;;;;5033777;28;20419;-80
2021/12/20 14:42:08;;;;;;;17.80;5.13;;;;;;;;;;5018361;28;20082;-76
2021/12/20 14:44:44;;;;;;;10.32;3.63;;;;;;;;;;5032352;28;20052;-81
2021/12/20 14:47:19;;;;;;;16.88;3.72;;;;;;;;;;5018853;28;20033;-75
2021/12/20 14:49:58;;;;;;;9.27;3.00;;;;;;;;;;5032692;28;20522;-81
2021/12/20 14:52:29;;;;;;;14.07;3.72;;;;;;;;;;5018291;28;20867;-73